Waynedale, Indiana
Current Conditions -  °F | °C
As of 3:54 AM on Sunday 26 Oct 2014 (Local Time) from KFWA Reporting Station
Clear Clear  
Wind Chill: 40°   Ceiling: Unl
Heat Index: 44°   Visibility: 10mi
Dew Point: 33°   Wind: 7mph
Humidity: 65%   Direction: 270°W
Pressure: 29.95"   Gusts: NA
Location:  40.9649°N, 85.1332°W
Report Text: KFWA 260754Z 27006KT 10SM CLR 07/01 A2995 RMK AO2 SLP143 T00670006
Loading
Personal Weather Stations






























Interactive Weather Map New forecast layout! Learn more

10-Day Weather Forecast

Advertisements
Track Severe Weather on mobile